Time;durP1;ratioP1;P1;durP2;ratioP2;P2;SDS_P1;SDS_P2;PMS_P1;PMS_P2;Temp;Humidity;BMP_temperature;BMP_pressure;BME280_temperature;BME280_humidity;BME280_pressure;Samples;Min_cycle;Max_cycle;Signal;HPM_P1;HPM_P2
2021/08/31 00:01:22;;;;;;;58.55;29.88;;;14.70;99.90;;;;;;5070051;28;20025;-71
2021/08/31 00:03:48;;;;;;;51.58;27.02;;;14.70;99.90;;;;;;5071480;28;20024;-71
2021/08/31 00:06:13;;;;;;;65.57;32.33;;;14.60;99.90;;;;;;5070380;28;20079;-71
2021/08/31 00:08:39;;;;;;;70.00;32.28;;;14.70;99.90;;;;;;5070739;28;20033;-72
2021/08/31 00:11:05;;;;;;;62.45;30.83;;;14.70;99.90;;;;;;5071032;28;20056;-73
2021/08/31 00:13:30;;;;;;;53.40;28.05;;;14.70;99.90;;;;;;5071190;28;20524;-71
2021/08/31 00:15:56;;;;;;;54.45;29.08;;;14.60;99.90;;;;;;5072691;28;20012;-71
2021/08/31 00:18:22;;;;;;;52.13;26.80;;;14.60;99.90;;;;;;5074888;28;20028;-71
2021/08/31 00:20:47;;;;;;;59.85;29.63;;;14.60;99.90;;;;;;5074896;28;20024;-72
2021/08/31 00:23:13;;;;;;;47.88;27.48;;;14.60;99.90;;;;;;5073372;28;20037;-71
2021/08/31 00:25:39;;;;;;;48.17;26.40;;;14.60;99.90;;;;;;5073964;28;20032;-71
2021/08/31 00:28:05;;;;;;;49.42;26.35;;;14.60;99.90;;;;;;5074860;28;20389;-72
2021/08/31 00:30:31;;;;;;;46.60;26.13;;;14.60;99.90;;;;;;5074729;28;20024;-71
2021/08/31 00:32:56;;;;;;;50.03;26.63;;;14.60;99.90;;;;;;5074488;28;20032;-72
2021/08/31 00:35:22;;;;;;;48.20;27.02;;;14.60;99.90;;;;;;5072569;28;20020;-72
2021/08/31 00:37:48;;;;;;;40.78;25.67;;;14.80;99.90;;;;;;5074130;28;20031;-71
2021/08/31 00:40:14;;;;;;;40.47;24.40;;;14.70;99.90;;;;;;5073836;28;20025;-71
2021/08/31 00:42:39;;;;;;;34.22;23.38;;;14.60;99.90;;;;;;5073710;28;20025;-71
2021/08/31 00:45:05;;;;;;;36.03;22.98;;;14.60;99.90;;;;;;5072966;28;20020;-71
2021/08/31 00:47:31;;;;;;;32.03;21.33;;;14.60;99.90;;;;;;5074207;28;20021;-71
2021/08/31 00:49:57;;;;;;;29.73;18.52;;;14.60;99.90;;;;;;5073250;28;20470;-71
2021/08/31 00:52:23;;;;;;;28.05;18.98;;;14.60;99.90;;;;;;5074337;28;20025;-71
2021/08/31 00:54:49;;;;;;;27.63;19.55;;;14.60;99.90;;;;;;5072176;28;20402;-71
2021/08/31 00:57:15;;;;;;;28.67;19.58;;;14.70;99.90;;;;;;5074298;28;20025;-72
2021/08/31 00:59:41;;;;;;;26.40;18.27;;;14.70;99.90;;;;;;5074177;28;20025;-70
2021/08/31 01:02:07;;;;;;;31.20;19.92;;;14.80;99.90;;;;;;5074140;28;20028;-71
2021/08/31 01:04:32;;;;;;;28.67;19.63;;;14.80;99.90;;;;;;5073420;28;20036;-72
2021/08/31 01:06:59;;;;;;;33.92;21.58;;;14.80;99.90;;;;;;5074023;28;20110;-70
2021/08/31 01:09:27;;;;;;;32.78;21.58;;;14.90;99.90;;;;;;5073626;28;20039;-71
2021/08/31 01:11:54;;;;;;;38.47;21.00;;;14.90;99.90;;;;;;5073999;28;20032;-72
2021/08/31 01:14:20;;;;;;;35.13;21.23;;;15.00;99.90;;;;;;5073338;28;20078;-71
2021/08/31 01:16:47;;;;;;;27.83;19.20;;;15.00;99.90;;;;;;5073724;28;20138;-71
2021/08/31 01:19:13;;;;;;;35.33;21.85;;;15.00;99.90;;;;;;5073599;28;20027;-73
2021/08/31 01:21:39;;;;;;;40.85;20.67;;;15.00;99.90;;;;;;5073289;28;20075;-71
2021/08/31 01:24:05;;;;;;;35.97;21.08;;;14.90;99.90;;;;;;5073462;28;20025;-71
2021/08/31 01:26:31;;;;;;;32.05;20.40;;;14.80;99.90;;;;;;5072897;28;20032;-71
2021/08/31 01:29:00;;;;;;;30.15;19.13;;;14.80;99.90;;;;;;5072258;28;20032;-71
2021/08/31 01:31:25;;;;;;;41.33;25.20;;;14.70;99.90;;;;;;5073446;28;20442;-71
2021/08/31 01:33:51;;;;;;;44.17;26.27;;;14.80;99.90;;;;;;5073277;28;20104;-72
2021/08/31 01:36:17;;;;;;;45.80;25.13;;;14.70;99.90;;;;;;5072687;28;20085;-70
2021/08/31 01:38:43;;;;;;;48.75;27.13;;;14.70;99.90;;;;;;5073309;28;20016;-70
2021/08/31 01:41:09;;;;;;;52.17;28.83;;;14.60;99.90;;;;;;5073048;28;20397;-70
2021/08/31 01:43:35;;;;;;;64.50;30.60;;;14.60;99.90;;;;;;5072924;28;20059;-71
2021/08/31 01:46:00;;;;;;;64.15;30.63;;;14.60;99.90;;;;;;5071699;28;20082;-72
2021/08/31 01:48:26;;;;;;;63.75;30.83;;;14.50;99.90;;;;;;5072762;28;20493;-71
2021/08/31 01:50:51;;;;;;;69.95;30.85;;;14.50;99.90;;;;;;5072837;28;20029;-74
2021/08/31 01:53:17;;;;;;;75.22;33.72;;;14.50;99.90;;;;;;5073089;28;20024;-70
2021/08/31 01:55:43;;;;;;;61.80;30.90;;;14.50;99.90;;;;;;5072410;28;20035;-70
2021/08/31 01:58:08;;;;;;;56.22;28.33;;;14.40;99.90;;;;;;5073026;28;20069;-71
2021/08/31 02:00:34;;;;;;;56.60;30.65;;;14.50;99.90;;;;;;5073011;28;20035;-72
2021/08/31 02:03:00;;;;;;;69.15;34.58;;;14.40;99.90;;;;;;5072790;28;20028;-73
2021/08/31 02:05:26;;;;;;;71.53;35.47;;;14.40;99.90;;;;;;5072105;28;20527;-71
2021/08/31 02:07:52;;;;;;;69.75;32.10;;;14.50;99.90;;;;;;5072795;28;20051;-71
2021/08/31 02:10:18;;;;;;;68.65;31.48;;;14.50;99.90;;;;;;5072266;28;20107;-70
2021/08/31 02:12:43;;;;;;;75.20;35.72;;;14.50;99.90;;;;;;5072643;28;20390;-71
2021/08/31 02:15:10;;;;;;;76.28;33.70;;;14.60;99.90;;;;;;5071969;28;20031;-70
2021/08/31 02:17:36;;;;;;;61.92;32.05;;;14.60;99.90;;;;;;5072865;28;20040;-71
2021/08/31 02:20:01;;;;;;;55.38;28.17;;;14.50;99.90;;;;;;5072728;28;20078;-70
2021/08/31 02:22:27;;;;;;;55.05;29.02;;;14.60;99.90;;;;;;5072295;28;20043;-71
2021/08/31 02:24:53;;;;;;;67.35;32.00;;;14.60;99.90;;;;;;5071791;28;20044;-71
2021/08/31 02:27:18;;;;;;;59.30;31.30;;;14.50;99.90;;;;;;5072528;28;20074;-70
2021/08/31 02:29:44;;;;;;;53.83;28.10;;;14.60;99.90;;;;;;5071008;28;20025;-71
2021/08/31 02:32:10;;;;;;;69.55;31.63;;;14.60;99.90;;;;;;5072360;28;20508;-72
2021/08/31 02:34:35;;;;;;;56.25;28.35;;;14.60;99.90;;;;;;5071866;28;20021;-71
2021/08/31 02:37:01;;;;;;;62.80;32.50;;;14.50;99.90;;;;;;5072735;28;20029;-71
2021/08/31 02:39:27;;;;;;;64.47;31.73;;;14.50;99.90;;;;;;5071412;28;20028;-72
2021/08/31 02:41:52;;;;;;;69.45;32.72;;;14.60;99.90;;;;;;5072139;28;20490;-70
2021/08/31 02:44:18;;;;;;;60.13;28.90;;;14.60;99.90;;;;;;5071782;28;20078;-71
2021/08/31 02:46:44;;;;;;;54.83;28.85;;;14.50;99.90;;;;;;5071899;28;20064;-72
2021/08/31 02:49:09;;;;;;;66.15;30.98;;;14.50;99.90;;;;;;5072194;28;20036;-71
2021/08/31 02:51:35;;;;;;;55.63;29.27;;;14.50;99.90;;;;;;5071071;28;20024;-72
2021/08/31 02:54:01;;;;;;;53.97;29.23;;;14.50;99.90;;;;;;5072114;28;20017;-71
2021/08/31 02:56:27;;;;;;;55.88;29.02;;;14.50;99.90;;;;;;5071258;28;20027;-71
2021/08/31 02:58:52;;;;;;;55.42;29.40;;;14.50;99.90;;;;;;5072018;28;20016;-70
2021/08/31 03:04:19;;;;;;;51.67;26.10;;;14.60;99.90;;;;;;5029187;28;20029;-70
2021/08/31 03:06:45;;;;;;;53.58;28.52;;;14.50;99.90;;;;;;5063042;28;20051;-71
2021/08/31 03:09:10;;;;;;;52.75;26.38;;;14.60;99.90;;;;;;5072020;28;20482;-70
2021/08/31 03:11:36;;;;;;;46.40;25.90;;;14.60;99.90;;;;;;5071664;28;20546;-71
2021/08/31 03:14:01;;;;;;;54.67;28.25;;;14.50;99.90;;;;;;5071865;28;20024;-70
2021/08/31 03:16:27;;;;;;;52.65;27.77;;;14.60;99.90;;;;;;5071488;28;20016;-71
2021/08/31 03:18:53;;;;;;;51.58;28.27;;;14.70;99.90;;;;;;5071924;28;20029;-70
2021/08/31 03:21:18;;;;;;;61.78;28.73;;;14.70;99.90;;;;;;5079091;28;20055;-71
2021/08/31 03:23:44;;;;;;;59.30;30.80;;;14.60;99.90;;;;;;5071905;28;20033;-73
2021/08/31 03:26:10;;;;;;;53.50;27.55;;;14.70;99.90;;;;;;5071196;28;20031;-71
2021/08/31 03:28:35;;;;;;;55.67;30.08;;;14.60;99.90;;;;;;5071611;28;20111;-70
2021/08/31 03:31:01;;;;;;;59.40;29.70;;;14.70;99.90;;;;;;5079547;28;20024;-71
2021/08/31 03:33:26;;;;;;;56.92;29.55;;;14.70;99.90;;;;;;5073892;28;20099;-71
2021/08/31 03:35:52;;;;;;;60.25;29.65;;;14.70;99.90;;;;;;5071250;28;20032;-70
2021/08/31 03:38:18;;;;;;;65.15;31.35;;;14.70;99.90;;;;;;5071860;28;20477;-71
2021/08/31 03:40:43;;;;;;;65.47;31.75;;;14.70;99.90;;;;;;5071776;28;20136;-71
2021/08/31 03:43:09;;;;;;;58.67;28.05;;;14.70;99.90;;;;;;5071644;28;20024;-70
2021/08/31 03:45:35;;;;;;;62.90;29.90;;;14.50;99.90;;;;;;5070563;28;20569;-69
2021/08/31 03:48:00;;;;;;;60.13;29.33;;;14.50;99.90;;;;;;5071915;28;20031;-69
2021/08/31 03:50:26;;;;;;;69.50;30.65;;;14.50;99.90;;;;;;5073144;28;20028;-71
2021/08/31 03:52:52;;;;;;;45.45;26.23;;;14.50;99.90;;;;;;5068658;28;20020;-71
2021/08/31 03:55:17;;;;;;;60.83;30.15;;;14.50;99.90;;;;;;5065386;28;20539;-71
2021/08/31 03:57:43;;;;;;;64.72;30.23;;;14.40;99.90;;;;;;5074782;28;20052;-72
2021/08/31 04:00:09;;;;;;;60.72;29.98;;;14.40;99.90;;;;;;5074983;28;20048;-70
2021/08/31 04:02:36;;;;;;;61.80;28.88;;;14.40;99.90;;;;;;5074949;28;20039;-71
2021/08/31 04:05:02;;;;;;;61.95;30.23;;;14.40;99.90;;;;;;5074153;28;20056;-70
2021/08/31 04:07:28;;;;;;;56.85;29.92;;;14.30;99.90;;;;;;5075108;28;20056;-70
2021/08/31 04:09:55;;;;;;;67.03;31.38;;;14.40;99.90;;;;;;5074543;28;20036;-71
2021/08/31 04:12:21;;;;;;;65.00;31.83;;;14.40;99.90;;;;;;5074551;28;20029;-70
2021/08/31 04:14:46;;;;;;;58.95;29.73;;;14.40;99.90;;;;;;5073556;28;20069;-70
2021/08/31 04:17:12;;;;;;;66.68;32.33;;;14.30;99.90;;;;;;5074906;28;20029;-70
2021/08/31 04:19:38;;;;;;;63.42;30.80;;;14.40;99.90;;;;;;5074747;28;20051;-71
2021/08/31 04:22:04;;;;;;;65.15;31.02;;;14.40;99.90;;;;;;5082380;22;20067;-72
2021/08/31 04:24:30;;;;;;;67.50;31.02;;;14.40;99.90;;;;;;5072917;28;20032;-73
2021/08/31 04:26:56;;;;;;;67.78;32.15;;;14.40;99.90;;;;;;5073982;28;20040;-74
2021/08/31 04:29:21;;;;;;;66.05;33.40;;;14.30;99.90;;;;;;5074143;28;20036;-73
2021/08/31 04:31:47;;;;;;;62.20;32.00;;;14.30;99.90;;;;;;5069746;28;20382;-72
2021/08/31 04:34:13;;;;;;;58.05;30.13;;;14.30;99.90;;;;;;5035941;28;20040;-73
2021/08/31 04:36:38;;;;;;;60.58;30.05;;;14.20;99.90;;;;;;5053093;28;20024;-74
2021/08/31 04:39:04;;;;;;;68.25;32.78;;;14.20;99.90;;;;;;5054019;28;20445;-72
2021/08/31 04:41:29;;;;;;;60.20;31.55;;;14.20;99.90;;;;;;5053134;28;20028;-73
2021/08/31 04:43:55;;;;;;;64.55;31.15;;;14.30;99.90;;;;;;5053898;28;20033;-74
2021/08/31 04:46:21;;;;;;;60.85;31.30;;;14.20;99.90;;;;;;5053172;28;20029;-75
2021/08/31 04:48:46;;;;;;;62.67;30.42;;;14.20;99.90;;;;;;5035948;28;20132;-72
2021/08/31 04:51:12;;;;;;;49.47;28.23;;;14.20;99.90;;;;;;5053820;28;20040;-71
2021/08/31 04:53:38;;;;;;;63.78;32.95;;;14.10;99.90;;;;;;5053052;28;20059;-75
2021/08/31 04:56:03;;;;;;;53.65;29.42;;;14.10;99.90;;;;;;5051772;28;20402;-75
2021/08/31 04:58:29;;;;;;;47.10;28.10;;;14.10;99.90;;;;;;5051272;28;20053;-75
2021/08/31 05:00:55;;;;;;;58.08;30.02;;;14.10;99.90;;;;;;5051827;28;20462;-75
2021/08/31 05:03:21;;;;;;;62.78;32.55;;;14.20;99.90;;;;;;5051804;28;20082;-76
2021/08/31 05:05:46;;;;;;;54.05;28.45;;;14.20;99.90;;;;;;5051064;28;20051;-74
2021/08/31 05:08:12;;;;;;;44.70;25.90;;;14.20;99.90;;;;;;5052311;28;20059;-76
2021/08/31 05:10:38;;;;;;;50.97;26.75;;;14.10;99.90;;;;;;5052453;28;20112;-75
2021/08/31 05:13:03;;;;;;;44.88;26.55;;;14.10;99.90;;;;;;5052320;28;20360;-75
2021/08/31 05:15:29;;;;;;;56.35;28.27;;;14.10;99.90;;;;;;5052799;28;20032;-76
2021/08/31 05:17:55;;;;;;;43.28;24.60;;;14.30;99.90;;;;;;5053551;28;20056;-72
2021/08/31 05:20:22;;;;;;;47.47;26.20;;;14.30;99.90;;;;;;5055346;28;20067;-74
2021/08/31 05:22:51;;;;;;;44.80;25.38;;;14.30;99.90;;;;;;5054395;28;20033;-73
2021/08/31 05:25:17;;;;;;;44.80;26.63;;;14.30;99.90;;;;;;5050680;28;20044;-73
2021/08/31 05:27:43;;;;;;;40.42;25.70;;;14.40;99.90;;;;;;5052801;28;20032;-73
2021/08/31 05:30:09;;;;;;;36.03;21.05;;;14.40;99.90;;;;;;5053402;28;20021;-73
2021/08/31 05:32:35;;;;;;;25.08;19.35;;;14.50;99.90;;;;;;5052992;28;20021;-72
2021/08/31 05:35:01;;;;;;;20.63;16.55;;;14.60;99.90;;;;;;5052103;28;20479;-73
2021/08/31 05:37:26;;;;;;;24.20;17.10;;;14.50;99.90;;;;;;5053457;28;20475;-73
2021/08/31 05:39:52;;;;;;;25.70;16.20;;;14.40;99.90;;;;;;5053219;28;20032;-72
2021/08/31 05:42:17;;;;;;;22.63;15.88;;;14.30;99.90;;;;;;5035656;28;20441;-73
2021/08/31 05:44:43;;;;;;;21.35;17.98;;;14.30;99.90;;;;;;5052521;28;20024;-75
2021/08/31 05:47:09;;;;;;;21.02;15.68;;;14.50;99.90;;;;;;5053137;28;20021;-74
2021/08/31 05:49:35;;;;;;;19.30;15.98;;;14.60;99.90;;;;;;5053185;28;20105;-74
2021/08/31 05:52:01;;;;;;;19.25;16.20;;;14.60;99.90;;;;;;5053167;28;20029;-72
2021/08/31 05:54:27;;;;;;;21.98;17.10;;;14.70;99.90;;;;;;5051053;28;20029;-74
2021/08/31 05:56:57;;;;;;;21.67;17.60;;;14.70;99.90;;;;;;5053090;28;20032;-74
2021/08/31 05:59:23;;;;;;;22.33;17.33;;;14.70;99.90;;;;;;5051895;28;20014;-75
2021/08/31 06:01:49;;;;;;;22.15;17.38;;;14.70;99.90;;;;;;5052352;28;20082;-74
2021/08/31 06:04:15;;;;;;;23.23;17.48;;;14.70;99.90;;;;;;5052118;28;20032;-73
2021/08/31 06:06:41;;;;;;;25.10;18.00;;;14.70;99.90;;;;;;5052106;28;20107;-73
2021/08/31 06:09:07;;;;;;;23.33;18.45;;;14.70;99.90;;;;;;5041727;28;20104;-74
2021/08/31 06:11:39;;;;;;;24.85;18.48;;;14.70;99.90;;;;;;5044968;28;20075;-75
2021/08/31 06:14:08;;;;;;;20.67;16.95;;;14.70;99.90;;;;;;5047531;28;20028;-75
2021/08/31 06:16:35;;;;;;;22.55;16.35;;;14.70;99.90;;;;;;5047265;28;20425;-74
2021/08/31 06:19:01;;;;;;;19.33;16.55;;;14.70;99.90;;;;;;5047133;28;20044;-75
2021/08/31 06:21:27;;;;;;;23.27;17.13;;;14.80;99.90;;;;;;5052221;28;20040;-74
2021/08/31 06:23:53;;;;;;;25.42;18.48;;;14.90;99.90;;;;;;5052155;28;20032;-74
2021/08/31 06:26:19;;;;;;;22.48;18.00;;;15.00;99.90;;;;;;5051729;28;20491;-75
2021/08/31 06:28:44;;;;;;;20.98;17.13;;;15.10;99.90;;;;;;5051777;28;20021;-76
2021/08/31 06:31:10;;;;;;;24.63;17.30;;;15.20;99.90;;;;;;5051623;28;20086;-75
2021/08/31 06:33:36;;;;;;;23.63;16.92;;;15.20;99.90;;;;;;5051748;28;20106;-76
2021/08/31 06:36:01;;;;;;;17.73;15.43;;;15.20;99.90;;;;;;5051444;28;20096;-76
2021/08/31 06:38:27;;;;;;;19.73;15.88;;;15.20;99.90;;;;;;5050982;28;20083;-74
2021/08/31 06:40:53;;;;;;;19.98;16.45;;;15.20;99.90;;;;;;5051344;28;20044;-75
2021/08/31 06:43:18;;;;;;;24.00;15.57;;;15.20;99.90;;;;;;5051867;28;20021;-75
2021/08/31 06:45:45;;;;;;;15.52;13.82;;;15.20;99.90;;;;;;5051135;28;20035;-76
2021/08/31 06:48:10;;;;;;;15.95;13.18;;;15.10;99.90;;;;;;5033801;28;20033;-76
2021/08/31 06:50:36;;;;;;;17.42;13.98;;;15.30;99.90;;;;;;5051535;28;20029;-76
2021/08/31 06:53:02;;;;;;;15.75;13.30;;;15.30;99.90;;;;;;5051466;28;20259;-75
2021/08/31 06:55:27;;;;;;;16.13;13.05;;;15.20;99.90;;;;;;5051215;28;20028;-76
2021/08/31 06:57:53;;;;;;;17.25;12.68;;;15.40;99.90;;;;;;5051177;28;20028;-76
2021/08/31 07:00:19;;;;;;;13.85;12.40;;;15.50;99.90;;;;;;5034137;28;20104;-76
2021/08/31 07:02:44;;;;;;;16.85;12.85;;;15.50;99.90;;;;;;5050187;28;20021;-75
2021/08/31 07:05:10;;;;;;;13.57;12.23;;;15.60;99.90;;;;;;5052921;28;20029;-75
2021/08/31 07:07:36;;;;;;;13.60;11.68;;;15.60;99.90;;;;;;5051341;28;20080;-75
2021/08/31 07:10:03;;;;;;;14.55;11.27;;;15.50;99.90;;;;;;5050887;28;20108;-76
2021/08/31 07:12:29;;;;;;;13.05;11.45;;;15.60;99.90;;;;;;5034160;28;20040;-74
2021/08/31 07:14:55;;;;;;;11.32;10.15;;;15.50;99.90;;;;;;5052905;28;20483;-74
2021/08/31 07:17:20;;;;;;;11.40;10.20;;;15.60;99.90;;;;;;5052657;28;20028;-75
2021/08/31 07:19:47;;;;;;;15.40;9.55;;;15.90;99.90;;;;;;5052368;28;20021;-74
2021/08/31 07:22:15;;;;;;;10.75;9.65;;;15.90;99.90;;;;;;5054425;28;20029;-74
2021/08/31 07:24:41;;;;;;;11.93;10.38;;;16.00;99.90;;;;;;5051466;28;20090;-75
2021/08/31 07:27:06;;;;;;;15.25;10.95;;;16.20;99.90;;;;;;5051214;28;20641;-74
2021/08/31 07:29:32;;;;;;;11.52;10.10;;;16.20;99.90;;;;;;5033352;28;20086;-77
2021/08/31 07:31:57;;;;;;;11.25;9.60;;;16.20;99.90;;;;;;5051108;28;20028;-75
2021/08/31 07:34:23;;;;;;;12.93;11.55;;;16.30;99.90;;;;;;5049992;28;20074;-77
2021/08/31 07:36:49;;;;;;;10.98;9.82;;;16.50;99.90;;;;;;5050913;28;20031;-77
2021/08/31 07:39:15;;;;;;;11.48;9.15;;;16.80;99.90;;;;;;5050817;28;20025;-76
2021/08/31 07:41:41;;;;;;;14.60;7.78;;;16.90;99.90;;;;;;5050823;28;20096;-75
2021/08/31 07:44:07;;;;;;;10.32;7.78;;;16.90;99.90;;;;;;5050885;28;20203;-76
2021/08/31 07:46:32;;;;;;;7.93;6.80;;;17.10;99.90;;;;;;5050252;28;20033;-76
2021/08/31 07:48:58;;;;;;;8.65;7.28;;;17.10;99.90;;;;;;5050311;28;20033;-75
2021/08/31 07:51:24;;;;;;;8.15;6.75;;;17.40;99.90;;;;;;5050690;28;20056;-74
2021/08/31 07:53:50;;;;;;;10.05;7.13;;;17.50;99.90;;;;;;5050821;28;20123;-76
2021/08/31 07:56:15;;;;;;;7.90;6.25;;;17.50;99.90;;;;;;5050454;28;20033;-75
2021/08/31 07:58:41;;;;;;;7.25;5.93;;;17.50;99.90;;;;;;5050755;28;20084;-75
2021/08/31 08:01:07;;;;;;;8.27;6.38;;;17.40;99.90;;;;;;5050752;28;20025;-76
2021/08/31 08:03:33;;;;;;;6.20;5.15;;;17.10;99.90;;;;;;5050376;28;20029;-74
2021/08/31 08:05:59;;;;;;;6.63;5.68;;;17.10;99.90;;;;;;5050113;28;20131;-75
2021/08/31 08:08:24;;;;;;;7.55;6.20;;;17.30;99.90;;;;;;5050626;28;20497;-75
2021/08/31 08:10:51;;;;;;;5.97;5.38;;;17.50;99.90;;;;;;5050663;28;20562;-75
2021/08/31 08:13:18;;;;;;;7.65;5.70;;;17.50;99.90;;;;;;5051820;28;20028;-75
2021/08/31 08:15:43;;;;;;;6.03;5.43;;;17.60;99.90;;;;;;5050731;28;20463;-73
2021/08/31 08:18:09;;;;;;;5.30;4.28;;;18.00;99.90;;;;;;5050151;28;20025;-74
2021/08/31 08:20:35;;;;;;;8.15;5.13;;;18.40;99.90;;;;;;5050620;28;20021;-75
2021/08/31 08:23:01;;;;;;;6.80;5.35;;;18.40;99.90;;;;;;5050582;28;20037;-74
2021/08/31 08:25:27;;;;;;;6.47;5.47;;;18.50;99.90;;;;;;5050008;28;20028;-74
2021/08/31 08:27:53;;;;;;;7.28;6.35;;;18.00;99.90;;;;;;5050461;28;20032;-74
2021/08/31 08:30:19;;;;;;;7.18;5.35;;;17.30;99.90;;;;;;5032334;28;20044;-74
2021/08/31 08:32:44;;;;;;;6.63;6.03;;;16.90;99.90;;;;;;5050379;28;20021;-76
2021/08/31 08:35:12;;;;;;;6.88;5.40;;;17.30;99.90;;;;;;5049433;28;20071;-75
2021/08/31 08:37:38;;;;;;;6.35;5.35;;;17.70;99.90;;;;;;5053552;28;20025;-73
2021/08/31 08:40:04;;;;;;;8.25;5.60;;;18.30;99.90;;;;;;5053736;28;20051;-75
2021/08/31 08:42:30;;;;;;;11.25;5.72;;;18.30;99.90;;;;;;5053621;28;20072;-76
2021/08/31 08:44:56;;;;;;;6.28;4.90;;;18.40;99.90;;;;;;5053100;28;20511;-75
2021/08/31 08:47:22;;;;;;;4.88;4.47;;;18.50;99.90;;;;;;5053804;28;20025;-74
2021/08/31 08:49:49;;;;;;;6.03;5.15;;;18.60;99.90;;;;;;5053544;28;20434;-76
2021/08/31 08:52:15;;;;;;;7.43;5.35;;;18.50;99.90;;;;;;5066152;28;20112;-75
2021/08/31 08:54:42;;;;;;;5.70;5.18;;;18.40;99.90;;;;;;5071865;28;20029;-75
2021/08/31 08:57:08;;;;;;;6.00;5.40;;;18.60;99.90;;;;;;5066277;28;20025;-75
2021/08/31 08:59:38;;;;;;;6.50;5.63;;;18.70;99.90;;;;;;5063604;28;20530;-75
2021/08/31 09:02:04;;;;;;;6.05;5.25;;;18.90;99.90;;;;;;5044259;28;20052;-73
2021/08/31 09:04:48;;;;;;;5.65;5.10;;;19.10;99.90;;;;;;5054598;28;20097;-74
2021/08/31 09:07:22;;;;;;;6.88;4.70;;;19.00;99.90;;;;;;5055502;28;20074;-75
2021/08/31 09:10:08;;;;;;;5.30;4.80;;;19.30;99.90;;;;;;5055122;28;20100;-73
2021/08/31 09:12:35;;;;;;;6.70;4.88;;;19.90;99.90;;;;;;5033921;28;20117;-74
2021/08/31 09:15:22;;;;;;;7.97;5.10;;;20.30;99.90;;;;;;5034384;28;20026;-75
2021/08/31 09:18:03;;;;;;;4.97;4.07;;;20.90;99.90;;;;;;5040647;28;20030;-76
2021/08/31 09:20:29;;;;;;;4.30;3.90;;;20.50;99.90;;;;;;5039150;28;20021;-75
2021/08/31 09:22:55;;;;;;;5.90;3.60;;;20.40;99.90;;;;;;5054993;28;20060;-74
2021/08/31 09:25:35;;;;;;;4.18;3.85;;;20.80;99.90;;;;;;5053786;28;20471;-77
2021/08/31 09:28:02;;;;;;;9.07;6.03;;;21.80;99.90;;;;;;5054718;28;20021;-72
2021/08/31 09:30:30;;;;;;;7.13;4.63;;;21.70;99.90;;;;;;5054358;28;20426;-72
2021/08/31 09:33:09;;;;;;;4.28;3.53;;;22.80;99.90;;;;;;5054507;28;20021;-72
2021/08/31 09:35:35;;;;;;;3.80;3.50;;;21.50;99.90;;;;;;5053754;28;20036;-76
2021/08/31 09:38:06;;;;;;;4.30;3.90;;;20.30;99.90;;;;;;5055482;28;20106;-77
2021/08/31 09:40:41;;;;;;;4.07;3.78;;;19.90;99.90;;;;;;5041502;28;20025;-75
2021/08/31 09:43:12;;;;;;;4.05;3.25;;;19.80;99.90;;;;;;5072612;28;20020;-75
2021/08/31 09:45:40;;;;;;;4.27;3.67;;;20.70;99.90;;;;;;5057881;28;20502;-77
2021/08/31 09:48:08;;;;;;;3.70;3.40;;;20.90;99.90;;;;;;5054088;28;20282;-75
2021/08/31 09:50:41;;;;;;;3.40;3.10;;;20.80;99.90;;;;;;5037401;28;20029;-75
2021/08/31 09:53:27;;;;;;;6.32;3.63;;;20.90;99.90;;;;;;5054411;28;20074;-75
2021/08/31 09:56:01;;;;;;;4.00;3.60;;;20.60;99.90;;;;;;5035387;28;20029;-76
2021/08/31 09:58:29;;;;;;;4.32;3.97;;;19.90;99.90;;;;;;5053314;28;20067;-75
2021/08/31 10:00:56;;;;;;;3.92;3.63;;;19.70;99.90;;;;;;5054700;28;20118;-77
2021/08/31 10:03:23;;;;;;;5.20;4.25;;;19.50;99.90;;;;;;5067082;28;20040;-74
2021/08/31 10:05:52;;;;;;;5.75;3.83;;;19.10;99.90;;;;;;5065664;28;20085;-75
2021/08/31 10:08:19;;;;;;;5.13;3.97;;;19.20;99.90;;;;;;5061244;28;20041;-76
2021/08/31 10:10:46;;;;;;;5.85;4.50;;;19.50;99.90;;;;;;5057411;28;20108;-75
2021/08/31 10:13:23;;;;;;;6.57;4.10;;;19.30;99.90;;;;;;5057646;28;20092;-76
2021/08/31 10:15:52;;;;;;;4.80;4.35;;;19.30;99.90;;;;;;5053292;28;20025;-77
2021/08/31 10:18:19;;;;;;;5.60;4.32;;;19.10;99.90;;;;;;5047225;28;20086;-77
2021/08/31 10:21:08;;;;;;;4.70;3.92;;;19.30;99.90;;;;;;5054683;28;20101;-76
2021/08/31 10:23:37;;;;;;;4.78;4.30;;;19.80;99.90;;;;;;5037242;28;20064;-76
2021/08/31 10:26:35;;;;;;;4.10;3.80;;;20.50;99.90;;;;;;5051821;28;20110;-74
2021/08/31 10:29:16;;;;;;;4.22;3.55;;;21.10;99.90;;;;;;5036323;28;20025;-76
2021/08/31 10:31:43;;;;;;;3.95;3.05;;;21.40;99.90;;;;;;5068317;22;20379;-78
2021/08/31 10:34:30;;;;;;;5.38;3.35;;;21.50;99.90;;;;;;5053085;28;20029;-78
2021/08/31 10:37:05;;;;;;;3.95;3.22;;;21.80;99.90;;;;;;5052409;28;20029;-78
2021/08/31 10:39:51;;;;;;;4.43;3.97;;;21.90;99.90;;;;;;5053615;28;20021;-78
2021/08/31 10:42:29;;;;;;;4.38;3.20;;;21.60;99.90;;;;;;5035243;28;20025;-76
2021/08/31 10:44:57;;;;;;;3.67;3.25;;;22.10;99.90;;;;;;5031702;28;20033;-76
2021/08/31 10:47:33;;;;;;;3.33;3.03;;;22.50;99.90;;;;;;5031931;28;20487;-77
2021/08/31 10:49:58;;;;;;;4.70;3.70;;;22.40;99.90;;;;;;5031975;28;20045;-77
2021/08/31 10:52:43;;;;;;;3.70;3.35;;;22.40;99.90;;;;;;5031946;28;20136;-76
2021/08/31 10:55:18;;;;;;;5.78;3.30;;;22.30;99.90;;;;;;5049425;28;20033;-77
2021/08/31 10:57:45;;;;;;;3.17;2.97;;;22.50;99.90;;;;;;5052115;28;20036;-76
2021/08/31 11:00:16;;;;;;;3.50;3.05;;;23.40;99.90;;;;;;5051244;28;20021;-76
2021/08/31 11:05:26;;;;;;;4.50;3.30;;;22.00;99.90;;;;;;5052517;28;20120;-77
2021/08/31 11:07:57;;;;;;;5.50;3.33;;;22.60;99.90;;;;;;5034315;28;20021;-76
2021/08/31 11:10:34;;;;;;;3.65;3.35;;;22.60;99.90;;;;;;5053238;28;20032;-79
2021/08/31 11:13:29;;;;;;;3.80;3.30;;;22.10;99.90;;;;;;5050531;28;20032;-80
2021/08/31 11:15:57;;;;;;;8.52;3.92;;;22.20;99.90;;;;;;5040323;28;20530;-80
2021/08/31 11:18:23;;;;;;;5.63;3.13;;;22.80;99.90;;;;;;5052223;28;20049;-80
2021/08/31 11:20:49;;;;;;;5.40;3.05;;;24.00;99.90;;;;;;5051432;28;20051;-79
2021/08/31 11:23:19;;;;;;;3.20;2.75;;;25.60;99.90;;;;;;5052660;28;20447;-80
2021/08/31 11:25:56;;;;;;;6.47;2.85;;;25.80;99.90;;;;;;5051386;28;20073;-80
2021/08/31 11:28:24;;;;;;;3.45;3.10;;;25.10;99.90;;;;;;5051195;28;20090;-80
2021/08/31 11:31:00;;;;;;;3.65;3.33;;;23.70;99.90;;;;;;5051745;28;20029;-80
2021/08/31 11:33:36;;;;;;;3.40;3.20;;;22.80;99.90;;;;;;5052386;28;20052;-80
2021/08/31 11:36:06;;;;;;;3.90;3.08;;;21.90;99.90;;;;;;5049911;28;20443;-81
2021/08/31 11:38:32;;;;;;;3.80;3.50;;;22.20;99.90;;;;;;5051654;28;20074;-77
2021/08/31 11:41:24;;;;;;;4.90;3.80;;;22.10;99.90;;;;;;5045933;28;20029;-77
2021/08/31 11:43:50;;;;;;;;;;;21.70;99.90;;;;;;5049129;28;20434;-78
2021/08/31 11:46:24;;;;;;;3.25;2.95;;;21.00;99.90;;;;;;5054805;28;19905;-80
2021/08/31 11:49:04;;;;;;;3.38;3.08;;;20.90;99.90;;;;;;5043052;28;20032;-77
2021/08/31 11:51:29;;;;;;;4.68;3.22;;;20.50;99.90;;;;;;5049742;28;20029;-76
2021/08/31 11:54:12;;;;;;;3.20;3.00;;;22.00;99.90;;;;;;5051065;28;20029;-80
2021/08/31 11:56:39;;;;;;;3.13;2.83;;;23.30;99.90;;;;;;5049306;28;20044;-79
2021/08/31 11:59:05;;;;;;;3.47;3.10;;;23.00;99.90;;;;;;5051014;28;20025;-79
2021/08/31 12:01:33;;;;;;;3.63;2.97;;;22.60;99.90;;;;;;5050674;28;20412;-78
2021/08/31 12:04:19;;;;;;;3.65;3.35;;;22.20;99.90;;;;;;5051095;28;20083;-79
2021/08/31 12:06:50;;;;;;;7.88;4.07;;;22.60;99.90;;;;;;5049112;28;20029;-79
2021/08/31 12:09:22;;;;;;;4.13;3.57;;;21.70;99.90;;;;;;5050718;28;20056;-79
2021/08/31 12:11:49;;;;;;;7.32;4.50;;;21.20;99.90;;;;;;5055978;28;20390;-83
2021/08/31 12:14:17;;;;;;;6.00;4.00;;;21.40;99.90;;;;;;5058274;28;20039;-83
2021/08/31 12:16:44;;;;;;;4.78;4.00;;;22.00;99.90;;;;;;5059366;28;20023;-83
2021/08/31 12:19:15;;;;;;;7.15;4.13;;;22.30;99.90;;;;;;5058568;28;20104;-83
2021/08/31 12:21:41;;;;;;;4.85;3.80;;;22.30;99.90;;;;;;5058218;28;20021;-83
2021/08/31 12:24:13;;;;;;;3.95;3.50;;;22.40;99.90;;;;;;5056206;28;20097;-78
2021/08/31 12:26:38;;;;;;;4.43;4.03;;;21.90;99.90;;;;;;5054541;28;20032;-78
2021/08/31 12:29:10;;;;;;;3.53;3.22;;;21.20;99.90;;;;;;5055811;28;20032;-79
2021/08/31 12:31:37;;;;;;;3.60;3.25;;;21.30;99.90;;;;;;5054809;28;20035;-78
2021/08/31 12:34:30;;;;;;;4.20;3.80;;;21.60;99.90;;;;;;5054833;28;20095;-78
2021/08/31 12:36:55;;;;;;;4.03;3.63;;;21.30;99.90;;;;;;5054880;28;20017;-79
2021/08/31 12:39:27;;;;;;;4.25;3.95;;;21.10;99.90;;;;;;5054374;28;20031;-77
2021/08/31 12:41:54;;;;;;;4.55;3.78;;;21.00;99.90;;;;;;5053836;28;20017;-77
2021/08/31 12:44:22;;;;;;;5.05;3.17;;;21.00;99.90;;;;;;5053843;28;20029;-77